sensor_id;sensor_type;location;lat;lon;timestamp;temperature;humidity
43520;DHT22;46848;51.980;5.918;2023-06-26T00:01:03;27.50;53.60
43520;DHT22;46848;51.980;5.918;2023-06-26T00:03:30;27.40;53.70
43520;DHT22;46848;51.980;5.918;2023-06-26T00:05:57;27.40;53.70
43520;DHT22;46848;51.980;5.918;2023-06-26T00:08:26;27.40;53.90
43520;DHT22;46848;51.980;5.918;2023-06-26T00:10:52;27.40;54.00
43520;DHT22;46848;51.980;5.918;2023-06-26T00:13:18;27.40;54.20
43520;DHT22;46848;51.980;5.918;2023-06-26T00:15:44;27.30;54.20
43520;DHT22;46848;51.980;5.918;2023-06-26T00:18:10;27.30;54.30
43520;DHT22;46848;51.980;5.918;2023-06-26T00:20:36;27.30;54.60
43520;DHT22;46848;51.980;5.918;2023-06-26T00:23:01;27.30;54.80
43520;DHT22;46848;51.980;5.918;2023-06-26T00:25:29;27.30;54.90
43520;DHT22;46848;51.980;5.918;2023-06-26T00:27:55;27.20;54.90
43520;DHT22;46848;51.980;5.918;2023-06-26T00:30:20;27.20;55.20
43520;DHT22;46848;51.980;5.918;2023-06-26T00:32:46;27.10;55.30
43520;DHT22;46848;51.980;5.918;2023-06-26T00:35:11;27.10;55.30
43520;DHT22;46848;51.980;5.918;2023-06-26T00:37:37;27.00;55.40
43520;DHT22;46848;51.980;5.918;2023-06-26T00:40:03;27.00;55.40
43520;DHT22;46848;51.980;5.918;2023-06-26T00:42:30;27.00;55.40
43520;DHT22;46848;51.980;5.918;2023-06-26T00:44:56;27.00;55.60
43520;DHT22;46848;51.980;5.918;2023-06-26T00:47:21;26.90;55.60
43520;DHT22;46848;51.980;5.918;2023-06-26T00:49:47;26.90;55.70
43520;DHT22;46848;51.980;5.918;2023-06-26T00:52:13;26.90;55.80
43520;DHT22;46848;51.980;5.918;2023-06-26T00:54:39;26.90;55.90
43520;DHT22;46848;51.980;5.918;2023-06-26T00:57:05;26.80;56.00
43520;DHT22;46848;51.980;5.918;2023-06-26T00:59:30;26.80;56.10
43520;DHT22;46848;51.980;5.918;2023-06-26T01:01:56;26.80;56.20
43520;DHT22;46848;51.980;5.918;2023-06-26T01:04:21;26.80;56.40
43520;DHT22;46848;51.980;5.918;2023-06-26T01:06:52;26.80;56.50
43520;DHT22;46848;51.980;5.918;2023-06-26T01:09:20;26.80;56.40
43520;DHT22;46848;51.980;5.918;2023-06-26T01:11:46;26.80;56.40
43520;DHT22;46848;51.980;5.918;2023-06-26T01:14:12;26.80;56.40
43520;DHT22;46848;51.980;5.918;2023-06-26T01:16:39;26.70;56.30
43520;DHT22;46848;51.980;5.918;2023-06-26T01:19:15;26.70;56.10
43520;DHT22;46848;51.980;5.918;2023-06-26T01:21:54;26.70;56.00
43520;DHT22;46848;51.980;5.918;2023-06-26T01:24:23;26.70;55.90
43520;DHT22;46848;51.980;5.918;2023-06-26T01:26:53;26.70;55.90
43520;DHT22;46848;51.980;5.918;2023-06-26T01:29:19;26.70;55.80
43520;DHT22;46848;51.980;5.918;2023-06-26T01:31:46;26.70;55.80
43520;DHT22;46848;51.980;5.918;2023-06-26T01:34:16;26.70;55.80
43520;DHT22;46848;51.980;5.918;2023-06-26T01:36:42;26.60;55.80
43520;DHT22;46848;51.980;5.918;2023-06-26T01:39:07;26.60;55.80
43520;DHT22;46848;51.980;5.918;2023-06-26T01:41:34;26.70;56.00
43520;DHT22;46848;51.980;5.918;2023-06-26T01:46:48;26.60;56.00
43520;DHT22;46848;51.980;5.918;2023-06-26T01:49:33;26.60;56.00
43520;DHT22;46848;51.980;5.918;2023-06-26T01:54:38;26.60;56.20
43520;DHT22;46848;51.980;5.918;2023-06-26T01:57:05;26.50;56.40
43520;DHT22;46848;51.980;5.918;2023-06-26T01:59:32;26.50;56.70
43520;DHT22;46848;51.980;5.918;2023-06-26T02:02:00;26.40;57.10
43520;DHT22;46848;51.980;5.918;2023-06-26T02:04:26;26.40;56.90
43520;DHT22;46848;51.980;5.918;2023-06-26T02:06:52;26.40;57.00
43520;DHT22;46848;51.980;5.918;2023-06-26T02:09:17;26.40;57.00
43520;DHT22;46848;51.980;5.918;2023-06-26T02:11:43;26.30;57.00
43520;DHT22;46848;51.980;5.918;2023-06-26T02:14:08;26.30;57.10
43520;DHT22;46848;51.980;5.918;2023-06-26T02:16:35;26.20;57.10
43520;DHT22;46848;51.980;5.918;2023-06-26T02:19:01;26.20;57.10
43520;DHT22;46848;51.980;5.918;2023-06-26T02:21:26;26.20;57.20
43520;DHT22;46848;51.980;5.918;2023-06-26T02:23:52;26.20;57.20
43520;DHT22;46848;51.980;5.918;2023-06-26T02:26:17;26.10;57.00
43520;DHT22;46848;51.980;5.918;2023-06-26T02:28:43;26.10;56.90
43520;DHT22;46848;51.980;5.918;2023-06-26T02:31:09;26.10;56.90
43520;DHT22;46848;51.980;5.918;2023-06-26T02:33:34;26.10;56.80
43520;DHT22;46848;51.980;5.918;2023-06-26T02:36:00;26.00;56.70
43520;DHT22;46848;51.980;5.918;2023-06-26T02:38:26;26.00;56.80
43520;DHT22;46848;51.980;5.918;2023-06-26T02:40:51;25.90;56.80
43520;DHT22;46848;51.980;5.918;2023-06-26T02:43:17;25.90;57.00
43520;DHT22;46848;51.980;5.918;2023-06-26T02:45:43;25.90;57.00
43520;DHT22;46848;51.980;5.918;2023-06-26T02:48:08;25.80;57.00
43520;DHT22;46848;51.980;5.918;2023-06-26T02:50:36;25.80;57.00
43520;DHT22;46848;51.980;5.918;2023-06-26T02:53:02;25.70;57.00
43520;DHT22;46848;51.980;5.918;2023-06-26T02:55:27;25.70;57.10
43520;DHT22;46848;51.980;5.918;2023-06-26T02:57:53;25.60;57.10
43520;DHT22;46848;51.980;5.918;2023-06-26T03:00:18;25.60;57.20
43520;DHT22;46848;51.980;5.918;2023-06-26T03:02:44;25.60;57.40
43520;DHT22;46848;51.980;5.918;2023-06-26T03:05:10;25.50;57.30
43520;DHT22;46848;51.980;5.918;2023-06-26T03:07:35;25.50;57.40
43520;DHT22;46848;51.980;5.918;2023-06-26T03:10:01;25.50;57.50
43520;DHT22;46848;51.980;5.918;2023-06-26T03:12:26;25.40;57.60
43520;DHT22;46848;51.980;5.918;2023-06-26T03:14:52;25.30;57.70
43520;DHT22;46848;51.980;5.918;2023-06-26T03:17:17;25.30;57.80
43520;DHT22;46848;51.980;5.918;2023-06-26T03:19:43;25.30;57.90
43520;DHT22;46848;51.980;5.918;2023-06-26T03:22:10;25.20;58.10
43520;DHT22;46848;51.980;5.918;2023-06-26T03:24:35;25.20;58.20
43520;DHT22;46848;51.980;5.918;2023-06-26T03:27:01;25.10;58.30
43520;DHT22;46848;51.980;5.918;2023-06-26T03:29:26;25.10;58.50
43520;DHT22;46848;51.980;5.918;2023-06-26T03:31:52;25.10;58.60
43520;DHT22;46848;51.980;5.918;2023-06-26T03:34:17;25.00;58.80
43520;DHT22;46848;51.980;5.918;2023-06-26T03:36:43;24.90;59.80
43520;DHT22;46848;51.980;5.918;2023-06-26T03:39:09;24.90;59.30
43520;DHT22;46848;51.980;5.918;2023-06-26T03:41:34;24.90;59.40
43520;DHT22;46848;51.980;5.918;2023-06-26T03:44:00;24.80;59.60
43520;DHT22;46848;51.980;5.918;2023-06-26T03:46:26;24.80;59.60
43520;DHT22;46848;51.980;5.918;2023-06-26T03:48:52;24.80;59.60
43520;DHT22;46848;51.980;5.918;2023-06-26T03:51:17;24.80;59.60
43520;DHT22;46848;51.980;5.918;2023-06-26T03:53:43;24.70;59.70
43520;DHT22;46848;51.980;5.918;2023-06-26T03:56:08;24.70;59.80
43520;DHT22;46848;51.980;5.918;2023-06-26T03:58:34;24.70;59.80
43520;DHT22;46848;51.980;5.918;2023-06-26T04:00:59;24.70;60.00
43520;DHT22;46848;51.980;5.918;2023-06-26T04:03:25;24.70;60.10
43520;DHT22;46848;51.980;5.918;2023-06-26T04:05:51;24.70;60.10
43520;DHT22;46848;51.980;5.918;2023-06-26T04:08:17;24.60;60.20
43520;DHT22;46848;51.980;5.918;2023-06-26T04:10:42;24.60;60.40
43520;DHT22;46848;51.980;5.918;2023-06-26T04:13:10;24.60;60.50
43520;DHT22;46848;51.980;5.918;2023-06-26T04:15:36;24.60;60.60
43520;DHT22;46848;51.980;5.918;2023-06-26T04:18:02;24.60;60.50
43520;DHT22;46848;51.980;5.918;2023-06-26T04:20:28;24.60;61.20
43520;DHT22;46848;51.980;5.918;2023-06-26T04:22:54;24.60;60.70
43520;DHT22;46848;51.980;5.918;2023-06-26T04:25:19;24.60;60.70
43520;DHT22;46848;51.980;5.918;2023-06-26T04:27:45;24.60;60.80
43520;DHT22;46848;51.980;5.918;2023-06-26T04:30:11;24.60;60.80
43520;DHT22;46848;51.980;5.918;2023-06-26T04:32:37;24.60;60.80
43520;DHT22;46848;51.980;5.918;2023-06-26T04:35:03;24.60;60.80
43520;DHT22;46848;51.980;5.918;2023-06-26T04:37:29;24.50;60.70
43520;DHT22;46848;51.980;5.918;2023-06-26T04:39:54;24.50;61.00
43520;DHT22;46848;51.980;5.918;2023-06-26T04:42:20;24.50;61.10
43520;DHT22;46848;51.980;5.918;2023-06-26T04:44:47;24.50;61.50
43520;DHT22;46848;51.980;5.918;2023-06-26T04:47:12;24.40;61.60
43520;DHT22;46848;51.980;5.918;2023-06-26T04:49:40;24.40;61.60
43520;DHT22;46848;51.980;5.918;2023-06-26T04:52:08;24.40;61.60
43520;DHT22;46848;51.980;5.918;2023-06-26T04:54:34;24.40;61.70
43520;DHT22;46848;51.980;5.918;2023-06-26T04:56:59;24.40;61.80
43520;DHT22;46848;51.980;5.918;2023-06-26T04:59:25;24.40;61.90
43520;DHT22;46848;51.980;5.918;2023-06-26T05:01:51;24.40;61.90
43520;DHT22;46848;51.980;5.918;2023-06-26T05:04:16;24.40;62.00
43520;DHT22;46848;51.980;5.918;2023-06-26T05:06:43;24.40;62.00
43520;DHT22;46848;51.980;5.918;2023-06-26T05:09:08;24.40;61.90
43520;DHT22;46848;51.980;5.918;2023-06-26T05:11:35;24.40;62.20
43520;DHT22;46848;51.980;5.918;2023-06-26T05:14:01;24.40;62.20
43520;DHT22;46848;51.980;5.918;2023-06-26T05:16:27;24.40;62.10
43520;DHT22;46848;51.980;5.918;2023-06-26T05:18:52;24.40;62.00
43520;DHT22;46848;51.980;5.918;2023-06-26T05:21:19;24.40;62.20
43520;DHT22;46848;51.980;5.918;2023-06-26T05:23:46;24.50;62.20
43520;DHT22;46848;51.980;5.918;2023-06-26T05:26:12;24.50;62.00
43520;DHT22;46848;51.980;5.918;2023-06-26T05:28:39;24.50;61.90
43520;DHT22;46848;51.980;5.918;2023-06-26T05:31:05;24.60;61.90
43520;DHT22;46848;51.980;5.918;2023-06-26T05:33:31;24.60;62.00
43520;DHT22;46848;51.980;5.918;2023-06-26T05:36:00;24.60;62.00
43520;DHT22;46848;51.980;5.918;2023-06-26T05:38:27;24.70;61.90
43520;DHT22;46848;51.980;5.918;2023-06-26T05:40:53;24.70;61.90
43520;DHT22;46848;51.980;5.918;2023-06-26T05:43:19;24.70;61.80
43520;DHT22;46848;51.980;5.918;2023-06-26T05:45:47;24.80;61.60
43520;DHT22;46848;51.980;5.918;2023-06-26T05:48:13;24.80;61.30
43520;DHT22;46848;51.980;5.918;2023-06-26T05:50:39;24.80;61.30
43520;DHT22;46848;51.980;5.918;2023-06-26T05:53:07;24.90;61.20
43520;DHT22;46848;51.980;5.918;2023-06-26T05:55:33;24.90;61.00
43520;DHT22;46848;51.980;5.918;2023-06-26T05:57:59;25.00;60.70
43520;DHT22;46848;51.980;5.918;2023-06-26T06:00:26;25.00;60.60
43520;DHT22;46848;51.980;5.918;2023-06-26T06:02:52;25.10;60.30
43520;DHT22;46848;51.980;5.918;2023-06-26T06:05:22;25.10;59.90
43520;DHT22;46848;51.980;5.918;2023-06-26T06:07:49;25.30;59.70
43520;DHT22;46848;51.980;5.918;2023-06-26T06:10:15;25.30;59.30
43520;DHT22;46848;51.980;5.918;2023-06-26T06:12:41;25.50;59.70
43520;DHT22;46848;51.980;5.918;2023-06-26T06:15:07;25.50;58.60
43520;DHT22;46848;51.980;5.918;2023-06-26T06:17:32;25.60;58.30
43520;DHT22;46848;51.980;5.918;2023-06-26T06:19:58;25.70;58.10
43520;DHT22;46848;51.980;5.918;2023-06-26T06:22:24;25.80;57.90
43520;DHT22;46848;51.980;5.918;2023-06-26T06:24:50;26.00;57.40
43520;DHT22;46848;51.980;5.918;2023-06-26T06:27:16;26.10;56.80
43520;DHT22;46848;51.980;5.918;2023-06-26T06:29:41;26.10;56.50
43520;DHT22;46848;51.980;5.918;2023-06-26T06:32:07;26.20;56.20
43520;DHT22;46848;51.980;5.918;2023-06-26T06:34:33;26.30;55.90
43520;DHT22;46848;51.980;5.918;2023-06-26T06:36:58;26.40;55.50
43520;DHT22;46848;51.980;5.918;2023-06-26T06:39:24;26.50;55.30
43520;DHT22;46848;51.980;5.918;2023-06-26T06:41:50;26.60;54.80
43520;DHT22;46848;51.980;5.918;2023-06-26T06:44:15;26.70;54.40
43520;DHT22;46848;51.980;5.918;2023-06-26T06:46:41;26.80;54.10
43520;DHT22;46848;51.980;5.918;2023-06-26T06:49:07;26.90;53.60
43520;DHT22;46848;51.980;5.918;2023-06-26T06:51:33;27.10;53.40
43520;DHT22;46848;51.980;5.918;2023-06-26T06:53:59;27.30;53.10
43520;DHT22;46848;51.980;5.918;2023-06-26T06:56:24;27.40;52.50
43520;DHT22;46848;51.980;5.918;2023-06-26T06:58:50;27.50;52.30
43520;DHT22;46848;51.980;5.918;2023-06-26T07:01:15;27.50;51.90
43520;DHT22;46848;51.980;5.918;2023-06-26T07:03:41;27.60;51.70
43520;DHT22;46848;51.980;5.918;2023-06-26T07:06:07;27.60;51.50
43520;DHT22;46848;51.980;5.918;2023-06-26T07:08:32;27.70;51.30
43520;DHT22;46848;51.980;5.918;2023-06-26T07:10:58;27.80;51.10
43520;DHT22;46848;51.980;5.918;2023-06-26T07:13:24;27.90;51.00
43520;DHT22;46848;51.980;5.918;2023-06-26T07:15:49;28.00;50.90
43520;DHT22;46848;51.980;5.918;2023-06-26T07:18:15;28.20;50.60
43520;DHT22;46848;51.980;5.918;2023-06-26T07:20:41;28.40;50.50
43520;DHT22;46848;51.980;5.918;2023-06-26T07:23:07;28.50;50.30
43520;DHT22;46848;51.980;5.918;2023-06-26T07:25:32;28.60;50.10
43520;DHT22;46848;51.980;5.918;2023-06-26T07:27:58;28.70;49.90
43520;DHT22;46848;51.980;5.918;2023-06-26T07:30:24;28.70;49.60
43520;DHT22;46848;51.980;5.918;2023-06-26T07:32:49;28.70;49.60
43520;DHT22;46848;51.980;5.918;2023-06-26T07:35:15;28.80;49.60
43520;DHT22;46848;51.980;5.918;2023-06-26T07:37:41;28.90;49.40
43520;DHT22;46848;51.980;5.918;2023-06-26T07:40:07;29.10;49.20
43520;DHT22;46848;51.980;5.918;2023-06-26T07:42:33;29.20;49.00
43520;DHT22;46848;51.980;5.918;2023-06-26T07:44:58;29.20;48.90
43520;DHT22;46848;51.980;5.918;2023-06-26T07:47:24;29.20;48.70
43520;DHT22;46848;51.980;5.918;2023-06-26T07:49:50;29.20;48.60
43520;DHT22;46848;51.980;5.918;2023-06-26T07:52:15;29.30;48.50
43520;DHT22;46848;51.980;5.918;2023-06-26T07:54:41;29.40;48.40
43520;DHT22;46848;51.980;5.918;2023-06-26T07:57:07;29.40;48.30
43520;DHT22;46848;51.980;5.918;2023-06-26T07:59:34;29.40;48.30
43520;DHT22;46848;51.980;5.918;2023-06-26T08:02:00;29.30;48.30
43520;DHT22;46848;51.980;5.918;2023-06-26T08:04:27;29.30;48.40
43520;DHT22;46848;51.980;5.918;2023-06-26T08:06:55;29.30;48.40
43520;DHT22;46848;51.980;5.918;2023-06-26T08:09:23;29.30;48.50
43520;DHT22;46848;51.980;5.918;2023-06-26T08:11:49;29.30;48.50
43520;DHT22;46848;51.980;5.918;2023-06-26T08:14:16;29.10;48.30
43520;DHT22;46848;51.980;5.918;2023-06-26T08:16:42;29.10;48.50
43520;DHT22;46848;51.980;5.918;2023-06-26T08:19:09;29.30;48.60
43520;DHT22;46848;51.980;5.918;2023-06-26T08:21:35;29.40;48.30
43520;DHT22;46848;51.980;5.918;2023-06-26T08:24:02;29.60;48.10
43520;DHT22;46848;51.980;5.918;2023-06-26T08:26:28;29.80;48.10
43520;DHT22;46848;51.980;5.918;2023-06-26T08:28:53;30.10;47.80
43520;DHT22;46848;51.980;5.918;2023-06-26T08:31:19;30.20;47.50
43520;DHT22;46848;51.980;5.918;2023-06-26T08:33:46;30.20;47.40
43520;DHT22;46848;51.980;5.918;2023-06-26T08:36:12;30.20;47.20
43520;DHT22;46848;51.980;5.918;2023-06-26T08:38:37;30.00;47.30
43520;DHT22;46848;51.980;5.918;2023-06-26T08:41:06;29.90;47.50
43520;DHT22;46848;51.980;5.918;2023-06-26T08:43:31;29.80;47.70
43520;DHT22;46848;51.980;5.918;2023-06-26T08:45:57;29.60;47.90
43520;DHT22;46848;51.980;5.918;2023-06-26T08:48:24;29.60;48.10
43520;DHT22;46848;51.980;5.918;2023-06-26T08:50:52;29.80;48.10
43520;DHT22;46848;51.980;5.918;2023-06-26T08:55:53;30.00;47.60
43520;DHT22;46848;51.980;5.918;2023-06-26T08:58:20;30.20;47.60
43520;DHT22;46848;51.980;5.918;2023-06-26T09:00:46;30.20;47.20
43520;DHT22;46848;51.980;5.918;2023-06-26T09:03:12;30.30;46.90
43520;DHT22;46848;51.980;5.918;2023-06-26T09:05:38;30.40;46.90
43520;DHT22;46848;51.980;5.918;2023-06-26T09:08:04;30.50;46.60
43520;DHT22;46848;51.980;5.918;2023-06-26T09:10:30;30.40;46.60
43520;DHT22;46848;51.980;5.918;2023-06-26T09:12:56;30.40;46.70
43520;DHT22;46848;51.980;5.918;2023-06-26T09:15:36;30.60;46.50
43520;DHT22;46848;51.980;5.918;2023-06-26T09:18:04;30.60;46.40
43520;DHT22;46848;51.980;5.918;2023-06-26T09:20:31;30.60;46.20
43520;DHT22;46848;51.980;5.918;2023-06-26T09:22:59;30.70;46.10
43520;DHT22;46848;51.980;5.918;2023-06-26T09:25:24;30.80;45.40
43520;DHT22;46848;51.980;5.918;2023-06-26T09:27:50;31.00;45.00
43520;DHT22;46848;51.980;5.918;2023-06-26T09:30:19;31.00;44.30
43520;DHT22;46848;51.980;5.918;2023-06-26T09:32:45;30.90;44.30
43520;DHT22;46848;51.980;5.918;2023-06-26T09:35:11;30.80;44.30
43520;DHT22;46848;51.980;5.918;2023-06-26T09:37:37;30.80;44.20
43520;DHT22;46848;51.980;5.918;2023-06-26T09:40:03;30.90;43.90
43520;DHT22;46848;51.980;5.918;2023-06-26T09:42:30;31.00;43.70
43520;DHT22;46848;51.980;5.918;2023-06-26T09:44:56;31.10;43.40
43520;DHT22;46848;51.980;5.918;2023-06-26T09:47:22;31.20;42.80
43520;DHT22;46848;51.980;5.918;2023-06-26T09:49:48;31.20;43.00
43520;DHT22;46848;51.980;5.918;2023-06-26T09:52:18;31.40;43.30
43520;DHT22;46848;51.980;5.918;2023-06-26T09:54:45;31.40;42.70
43520;DHT22;46848;51.980;5.918;2023-06-26T09:57:17;31.40;43.20
43520;DHT22;46848;51.980;5.918;2023-06-26T09:59:45;31.30;43.10
43520;DHT22;46848;51.980;5.918;2023-06-26T10:02:28;31.40;42.90
43520;DHT22;46848;51.980;5.918;2023-06-26T10:04:53;31.40;43.00
43520;DHT22;46848;51.980;5.918;2023-06-26T10:07:20;31.50;42.80
43520;DHT22;46848;51.980;5.918;2023-06-26T10:09:48;31.40;42.70
43520;DHT22;46848;51.980;5.918;2023-06-26T10:12:29;31.30;42.80
43520;DHT22;46848;51.980;5.918;2023-06-26T10:14:57;31.10;42.70
43520;DHT22;46848;51.980;5.918;2023-06-26T10:17:25;30.80;43.20
43520;DHT22;46848;51.980;5.918;2023-06-26T10:19:53;30.80;43.40
43520;DHT22;46848;51.980;5.918;2023-06-26T10:22:25;30.80;43.10
43520;DHT22;46848;51.980;5.918;2023-06-26T10:24:55;30.90;42.80
43520;DHT22;46848;51.980;5.918;2023-06-26T10:27:25;30.80;42.80
43520;DHT22;46848;51.980;5.918;2023-06-26T10:29:56;30.80;43.10
43520;DHT22;46848;51.980;5.918;2023-06-26T10:32:25;30.80;42.90
43520;DHT22;46848;51.980;5.918;2023-06-26T10:34:52;30.90;42.40
43520;DHT22;46848;51.980;5.918;2023-06-26T10:37:18;31.00;42.60
43520;DHT22;46848;51.980;5.918;2023-06-26T10:39:54;31.00;42.00
43520;DHT22;46848;51.980;5.918;2023-06-26T10:42:34;31.00;41.60
43520;DHT22;46848;51.980;5.918;2023-06-26T10:45:16;31.00;40.70
43520;DHT22;46848;51.980;5.918;2023-06-26T10:47:48;31.00;41.40
43520;DHT22;46848;51.980;5.918;2023-06-26T10:52:44;31.10;41.50
43520;DHT22;46848;51.980;5.918;2023-06-26T10:55:10;31.20;41.10
43520;DHT22;46848;51.980;5.918;2023-06-26T10:57:36;31.20;40.70
43520;DHT22;46848;51.980;5.918;2023-06-26T11:00:08;31.20;40.40
43520;DHT22;46848;51.980;5.918;2023-06-26T11:02:51;31.30;40.30
43520;DHT22;46848;51.980;5.918;2023-06-26T11:05:27;31.30;40.10
43520;DHT22;46848;51.980;5.918;2023-06-26T11:08:03;31.30;39.80
43520;DHT22;46848;51.980;5.918;2023-06-26T11:10:29;31.20;40.10
43520;DHT22;46848;51.980;5.918;2023-06-26T11:12:57;31.20;40.00
43520;DHT22;46848;51.980;5.918;2023-06-26T11:15:25;31.20;39.60
43520;DHT22;46848;51.980;5.918;2023-06-26T11:17:52;31.10;39.30
43520;DHT22;46848;51.980;5.918;2023-06-26T11:20:18;31.10;39.00
43520;DHT22;46848;51.980;5.918;2023-06-26T11:22:44;31.00;38.80
43520;DHT22;46848;51.980;5.918;2023-06-26T11:25:10;30.90;39.10
43520;DHT22;46848;51.980;5.918;2023-06-26T11:27:43;30.90;39.00
43520;DHT22;46848;51.980;5.918;2023-06-26T11:30:11;30.90;38.90
43520;DHT22;46848;51.980;5.918;2023-06-26T11:32:38;30.90;39.10
43520;DHT22;46848;51.980;5.918;2023-06-26T11:35:04;30.90;39.00
43520;DHT22;46848;51.980;5.918;2023-06-26T11:37:31;30.80;39.10
43520;DHT22;46848;51.980;5.918;2023-06-26T11:39:57;30.70;38.50
43520;DHT22;46848;51.980;5.918;2023-06-26T11:42:24;30.50;37.90
43520;DHT22;46848;51.980;5.918;2023-06-26T11:44:53;30.30;38.20
43520;DHT22;46848;51.980;5.918;2023-06-26T11:47:20;30.20;38.90
43520;DHT22;46848;51.980;5.918;2023-06-26T11:49:48;30.30;39.10
43520;DHT22;46848;51.980;5.918;2023-06-26T11:52:14;30.40;39.20
43520;DHT22;46848;51.980;5.918;2023-06-26T11:54:41;30.40;39.00
43520;DHT22;46848;51.980;5.918;2023-06-26T11:57:07;30.40;38.90
43520;DHT22;46848;51.980;5.918;2023-06-26T11:59:42;30.40;38.80
43520;DHT22;46848;51.980;5.918;2023-06-26T12:02:09;30.50;38.90
43520;DHT22;46848;51.980;5.918;2023-06-26T12:04:40;30.50;39.00
43520;DHT22;46848;51.980;5.918;2023-06-26T12:07:06;30.40;38.70
43520;DHT22;46848;51.980;5.918;2023-06-26T12:09:37;30.20;37.10
43520;DHT22;46848;51.980;5.918;2023-06-26T12:12:04;30.20;38.90
43520;DHT22;46848;51.980;5.918;2023-06-26T12:14:31;30.10;38.60
43520;DHT22;46848;51.980;5.918;2023-06-26T12:17:04;30.10;38.60
43520;DHT22;46848;51.980;5.918;2023-06-26T12:19:30;30.20;38.50
43520;DHT22;46848;51.980;5.918;2023-06-26T12:21:55;30.20;38.40
43520;DHT22;46848;51.980;5.918;2023-06-26T12:24:23;30.30;39.10
43520;DHT22;46848;51.980;5.918;2023-06-26T12:26:53;30.20;38.60
43520;DHT22;46848;51.980;5.918;2023-06-26T12:29:21;30.20;38.30
43520;DHT22;46848;51.980;5.918;2023-06-26T12:31:53;30.10;37.90
43520;DHT22;46848;51.980;5.918;2023-06-26T12:34:21;29.90;38.20
43520;DHT22;46848;51.980;5.918;2023-06-26T12:36:50;29.90;38.30
43520;DHT22;46848;51.980;5.918;2023-06-26T12:39:20;29.80;38.40
43520;DHT22;46848;51.980;5.918;2023-06-26T12:41:54;29.70;37.80
43520;DHT22;46848;51.980;5.918;2023-06-26T12:44:30;29.70;37.80
43520;DHT22;46848;51.980;5.918;2023-06-26T12:47:00;29.80;38.00
43520;DHT22;46848;51.980;5.918;2023-06-26T12:49:33;29.80;38.20
43520;DHT22;46848;51.980;5.918;2023-06-26T12:52:00;29.90;38.10
43520;DHT22;46848;51.980;5.918;2023-06-26T12:54:27;29.90;38.10
43520;DHT22;46848;51.980;5.918;2023-06-26T12:56:53;30.00;38.20
43520;DHT22;46848;51.980;5.918;2023-06-26T12:59:18;30.00;37.70
43520;DHT22;46848;51.980;5.918;2023-06-26T13:01:44;30.00;38.00
43520;DHT22;46848;51.980;5.918;2023-06-26T13:04:10;29.90;38.20
43520;DHT22;46848;51.980;5.918;2023-06-26T13:06:36;29.90;38.40
43520;DHT22;46848;51.980;5.918;2023-06-26T13:09:02;29.90;38.40
43520;DHT22;46848;51.980;5.918;2023-06-26T13:11:32;29.90;38.00
43520;DHT22;46848;51.980;5.918;2023-06-26T13:13:58;29.80;38.30
43520;DHT22;46848;51.980;5.918;2023-06-26T13:16:24;29.60;38.40
43520;DHT22;46848;51.980;5.918;2023-06-26T13:18:49;29.70;38.70
43520;DHT22;46848;51.980;5.918;2023-06-26T13:21:16;29.80;38.00
43520;DHT22;46848;51.980;5.918;2023-06-26T13:23:43;29.80;37.60
43520;DHT22;46848;51.980;5.918;2023-06-26T13:26:09;29.90;37.90
43520;DHT22;46848;51.980;5.918;2023-06-26T13:28:35;30.00;37.40
43520;DHT22;46848;51.980;5.918;2023-06-26T13:31:01;30.00;37.30
43520;DHT22;46848;51.980;5.918;2023-06-26T13:33:26;30.10;37.00
43520;DHT22;46848;51.980;5.918;2023-06-26T13:35:52;30.10;37.10
43520;DHT22;46848;51.980;5.918;2023-06-26T13:38:21;30.00;36.90
43520;DHT22;46848;51.980;5.918;2023-06-26T13:40:51;29.90;37.10
43520;DHT22;46848;51.980;5.918;2023-06-26T13:43:17;29.80;37.60
43520;DHT22;46848;51.980;5.918;2023-06-26T13:45:42;29.60;37.30
43520;DHT22;46848;51.980;5.918;2023-06-26T13:48:08;29.50;37.10
43520;DHT22;46848;51.980;5.918;2023-06-26T13:50:33;29.40;37.60
43520;DHT22;46848;51.980;5.918;2023-06-26T13:52:59;29.30;38.00
43520;DHT22;46848;51.980;5.918;2023-06-26T13:55:24;29.10;37.70
43520;DHT22;46848;51.980;5.918;2023-06-26T13:57:50;29.00;37.90
43520;DHT22;46848;51.980;5.918;2023-06-26T14:00:16;29.00;37.70
43520;DHT22;46848;51.980;5.918;2023-06-26T14:02:45;29.10;37.40
43520;DHT22;46848;51.980;5.918;2023-06-26T14:05:11;29.10;37.40
43520;DHT22;46848;51.980;5.918;2023-06-26T14:07:37;29.10;37.40
43520;DHT22;46848;51.980;5.918;2023-06-26T14:10:04;29.30;37.10
43520;DHT22;46848;51.980;5.918;2023-06-26T14:12:31;29.30;37.00
43520;DHT22;46848;51.980;5.918;2023-06-26T14:14:58;29.40;37.00
43520;DHT22;46848;51.980;5.918;2023-06-26T14:17:24;29.50;36.70
43520;DHT22;46848;51.980;5.918;2023-06-26T14:19:51;29.50;36.20
43520;DHT22;46848;51.980;5.918;2023-06-26T14:22:17;29.50;36.50
43520;DHT22;46848;51.980;5.918;2023-06-26T14:24:43;29.50;36.00
43520;DHT22;46848;51.980;5.918;2023-06-26T14:27:08;29.40;36.00
43520;DHT22;46848;51.980;5.918;2023-06-26T14:29:35;29.40;34.40
43520;DHT22;46848;51.980;5.918;2023-06-26T14:32:00;29.30;35.50
43520;DHT22;46848;51.980;5.918;2023-06-26T14:34:26;29.30;35.40
43520;DHT22;46848;51.980;5.918;2023-06-26T14:36:51;29.30;35.70
43520;DHT22;46848;51.980;5.918;2023-06-26T14:39:17;29.40;35.80
43520;DHT22;46848;51.980;5.918;2023-06-26T14:41:43;29.40;35.60
43520;DHT22;46848;51.980;5.918;2023-06-26T14:44:08;29.40;35.40
43520;DHT22;46848;51.980;5.918;2023-06-26T14:46:36;29.40;35.70
43520;DHT22;46848;51.980;5.918;2023-06-26T14:49:03;29.40;35.70
43520;DHT22;46848;51.980;5.918;2023-06-26T14:51:28;29.40;35.90
43520;DHT22;46848;51.980;5.918;2023-06-26T14:53:54;29.40;36.00
43520;DHT22;46848;51.980;5.918;2023-06-26T14:56:20;29.30;36.40
43520;DHT22;46848;51.980;5.918;2023-06-26T14:58:45;29.20;36.70
43520;DHT22;46848;51.980;5.918;2023-06-26T15:01:14;29.10;36.40
43520;DHT22;46848;51.980;5.918;2023-06-26T15:03:48;29.10;37.30
43520;DHT22;46848;51.980;5.918;2023-06-26T15:06:13;29.10;36.40
43520;DHT22;46848;51.980;5.918;2023-06-26T15:08:39;29.10;36.70
43520;DHT22;46848;51.980;5.918;2023-06-26T15:11:04;29.10;36.50
43520;DHT22;46848;51.980;5.918;2023-06-26T15:13:30;29.10;36.40
43520;DHT22;46848;51.980;5.918;2023-06-26T15:15:56;29.10;36.60
43520;DHT22;46848;51.980;5.918;2023-06-26T15:18:21;29.20;36.20
43520;DHT22;46848;51.980;5.918;2023-06-26T15:20:47;29.20;36.80
43520;DHT22;46848;51.980;5.918;2023-06-26T15:23:13;29.20;37.00
43520;DHT22;46848;51.980;5.918;2023-06-26T15:25:39;29.20;37.40
43520;DHT22;46848;51.980;5.918;2023-06-26T15:28:07;29.20;37.50
43520;DHT22;46848;51.980;5.918;2023-06-26T15:30:33;29.30;37.60
43520;DHT22;46848;51.980;5.918;2023-06-26T15:32:59;29.40;37.70
43520;DHT22;46848;51.980;5.918;2023-06-26T15:35:25;29.30;37.10
43520;DHT22;46848;51.980;5.918;2023-06-26T15:37:50;29.10;37.30